sensor_id;sensor_type;location;lat;lon;timestamp;pressure;altitude;pressure_sealevel;temperature;humidity
70843;BME280;58469;52.312;16.970;2024-03-06T00:00:35;101318.50;;;-1.15;94.48
70843;BME280;58469;52.312;16.970;2024-03-06T00:03:35;101318.38;;;-1.25;94.92
70843;BME280;58469;52.312;16.970;2024-03-06T00:06:36;101318.38;;;-1.25;94.97
70843;BME280;58469;52.312;16.970;2024-03-06T00:09:36;101319.56;;;-1.29;95.74
70843;BME280;58469;52.312;16.970;2024-03-06T00:12:36;101322.59;;;-1.35;95.39
70843;BME280;58469;52.312;16.970;2024-03-06T00:15:37;101320.75;;;-1.44;94.91
70843;BME280;58469;52.312;16.970;2024-03-06T00:18:37;101330.28;;;-1.46;94.98
70843;BME280;58469;52.312;16.970;2024-03-06T00:21:37;101337.44;;;-1.49;94.51
70843;BME280;58469;52.312;16.970;2024-03-06T00:24:38;101337.50;;;-1.51;94.49
70843;BME280;58469;52.312;16.970;2024-03-06T00:27:38;101342.44;;;-1.48;95.68
70843;BME280;58469;52.312;16.970;2024-03-06T00:30:38;101350.69;;;-1.44;95.90
70843;BME280;58469;52.312;16.970;2024-03-06T00:33:40;101350.13;;;-1.48;95.80
70843;BME280;58469;52.312;16.970;2024-03-06T00:36:41;101352.91;;;-1.51;95.97
70843;BME280;58469;52.312;16.970;2024-03-06T00:39:42;101353.72;;;-1.50;96.07
70843;BME280;58469;52.312;16.970;2024-03-06T00:42:43;101354.53;;;-1.50;95.84
70843;BME280;58469;52.312;16.970;2024-03-06T00:45:43;101359.78;;;-1.51;95.73
70843;BME280;58469;52.312;16.970;2024-03-06T00:48:43;101360.81;;;-1.54;95.07
70843;BME280;58469;52.312;16.970;2024-03-06T00:51:44;101363.75;;;-1.58;95.06
70843;BME280;58469;52.312;16.970;2024-03-06T00:54:44;101362.09;;;-1.59;94.22
70843;BME280;58469;52.312;16.970;2024-03-06T00:57:45;101368.72;;;-1.68;94.02
70843;BME280;58469;52.312;16.970;2024-03-06T01:00:45;101372.13;;;-1.67;94.79
70843;BME280;58469;52.312;16.970;2024-03-06T01:03:45;101372.59;;;-1.73;94.43
70843;BME280;58469;52.312;16.970;2024-03-06T01:06:46;101372.91;;;-1.78;94.45
70843;BME280;58469;52.312;16.970;2024-03-06T01:09:46;101376.53;;;-1.80;94.26
70843;BME280;58469;52.312;16.970;2024-03-06T01:12:46;101383.16;;;-1.78;94.80
70843;BME280;58469;52.312;16.970;2024-03-06T01:15:47;101374.91;;;-1.70;94.66
70843;BME280;58469;52.312;16.970;2024-03-06T01:18:47;101384.84;;;-1.55;94.67
70843;BME280;58469;52.312;16.970;2024-03-06T01:21:47;101377.59;;;-1.50;95.46
70843;BME280;58469;52.312;16.970;2024-03-06T01:24:48;101381.31;;;-1.32;94.86
70843;BME280;58469;52.312;16.970;2024-03-06T01:27:50;101396.81;;;-1.22;94.27
70843;BME280;58469;52.312;16.970;2024-03-06T01:30:51;101389.72;;;-1.18;93.94
70843;BME280;58469;52.312;16.970;2024-03-06T01:33:51;101391.78;;;-1.12;94.45
70843;BME280;58469;52.312;16.970;2024-03-06T01:36:52;101396.91;;;-1.01;94.13
70843;BME280;58469;52.312;16.970;2024-03-06T01:39:52;101391.88;;;-0.92;93.64
70843;BME280;58469;52.312;16.970;2024-03-06T01:42:53;101398.72;;;-0.81;93.56
70843;BME280;58469;52.312;16.970;2024-03-06T01:45:53;101395.91;;;-0.78;93.60
70843;BME280;58469;52.312;16.970;2024-03-06T01:48:53;101410.84;;;-0.72;93.04
70843;BME280;58469;52.312;16.970;2024-03-06T01:51:56;101401.94;;;-0.68;93.54
70843;BME280;58469;52.312;16.970;2024-03-06T01:54:58;101405.53;;;-0.60;93.38
70843;BME280;58469;52.312;16.970;2024-03-06T01:57:58;101402.38;;;-0.52;93.05
70843;BME280;58469;52.312;16.970;2024-03-06T02:00:59;101394.66;;;-0.41;93.78
70843;BME280;58469;52.312;16.970;2024-03-06T02:03:59;101399.84;;;-0.32;95.26
70843;BME280;58469;52.312;16.970;2024-03-06T02:07:00;101404.13;;;-0.21;94.40
70843;BME280;58469;52.312;16.970;2024-03-06T02:10:01;101404.31;;;-0.13;93.84
70843;BME280;58469;52.312;16.970;2024-03-06T02:13:02;101396.34;;;-0.10;92.78
70843;BME280;58469;52.312;16.970;2024-03-06T02:16:02;101403.31;;;-0.01;92.70
70843;BME280;58469;52.312;16.970;2024-03-06T02:19:03;101402.81;;;0.05;92.90
70843;BME280;58469;52.312;16.970;2024-03-06T02:22:03;101414.44;;;0.09;92.49
70843;BME280;58469;52.312;16.970;2024-03-06T02:25:04;101407.44;;;0.11;91.82
70843;BME280;58469;52.312;16.970;2024-03-06T02:28:06;101399.28;;;0.06;92.08
70843;BME280;58469;52.312;16.970;2024-03-06T02:31:06;101408.53;;;0.09;91.95
70843;BME280;58469;52.312;16.970;2024-03-06T02:34:06;101410.13;;;0.10;92.25
70843;BME280;58469;52.312;16.970;2024-03-06T02:37:07;101399.00;;;-0.01;92.99
70843;BME280;58469;52.312;16.970;2024-03-06T02:40:07;101400.44;;;-0.08;92.82
70843;BME280;58469;52.312;16.970;2024-03-06T02:43:10;101407.13;;;-0.16;92.74
70843;BME280;58469;52.312;16.970;2024-03-06T02:46:10;101414.88;;;-0.27;92.42
70843;BME280;58469;52.312;16.970;2024-03-06T02:49:10;101402.22;;;-0.40;92.85
70843;BME280;58469;52.312;16.970;2024-03-06T02:52:11;101405.75;;;-0.52;93.45
70843;BME280;58469;52.312;16.970;2024-03-06T02:55:11;101412.91;;;-0.55;93.16
70843;BME280;58469;52.312;16.970;2024-03-06T02:58:11;101408.94;;;-0.59;93.37
70843;BME280;58469;52.312;16.970;2024-03-06T03:01:13;101410.78;;;-0.61;93.57
70843;BME280;58469;52.312;16.970;2024-03-06T03:04:13;101418.25;;;-0.58;94.19
70843;BME280;58469;52.312;16.970;2024-03-06T03:07:14;101417.78;;;-0.52;94.09
70843;BME280;58469;52.312;16.970;2024-03-06T03:10:14;101414.50;;;-0.54;95.16
70843;BME280;58469;52.312;16.970;2024-03-06T03:13:15;101409.50;;;-0.56;94.87
70843;BME280;58469;52.312;16.970;2024-03-06T03:16:19;101409.19;;;-0.62;94.50
70843;BME280;58469;52.312;16.970;2024-03-06T03:19:20;101410.28;;;-0.76;93.92
70843;BME280;58469;52.312;16.970;2024-03-06T03:22:20;101423.22;;;-0.88;94.21
70843;BME280;58469;52.312;16.970;2024-03-06T03:25:21;101423.94;;;-0.97;93.90
70843;BME280;58469;52.312;16.970;2024-03-06T03:28:22;101427.09;;;-1.05;94.05
70843;BME280;58469;52.312;16.970;2024-03-06T03:31:22;101426.88;;;-1.13;94.78
70843;BME280;58469;52.312;16.970;2024-03-06T03:34:22;101424.66;;;-1.17;95.47
70843;BME280;58469;52.312;16.970;2024-03-06T03:37:23;101427.94;;;-1.15;95.43
70843;BME280;58469;52.312;16.970;2024-03-06T03:40:23;101432.47;;;-1.19;95.57
70843;BME280;58469;52.312;16.970;2024-03-06T03:43:24;101436.56;;;-1.28;94.67
70843;BME280;58469;52.312;16.970;2024-03-06T03:46:24;101439.56;;;-1.34;94.96
70843;BME280;58469;52.312;16.970;2024-03-06T03:49:24;101439.94;;;-1.38;94.86
70843;BME280;58469;52.312;16.970;2024-03-06T03:52:25;101438.63;;;-1.44;94.99
70843;BME280;58469;52.312;16.970;2024-03-06T03:55:25;101439.09;;;-1.50;95.14
70843;BME280;58469;52.312;16.970;2024-03-06T03:58:26;101443.19;;;-1.47;94.74
70843;BME280;58469;52.312;16.970;2024-03-06T04:01:26;101441.69;;;-1.50;94.89
70843;BME280;58469;52.312;16.970;2024-03-06T04:04:26;101439.56;;;-1.56;94.72
70843;BME280;58469;52.312;16.970;2024-03-06T04:07:27;101435.94;;;-1.64;94.62
70843;BME280;58469;52.312;16.970;2024-03-06T04:10:27;101440.59;;;-1.69;94.42
70843;BME280;58469;52.312;16.970;2024-03-06T04:13:27;101433.59;;;-1.78;94.48
70843;BME280;58469;52.312;16.970;2024-03-06T04:16:28;101429.16;;;-1.76;95.08
70843;BME280;58469;52.312;16.970;2024-03-06T04:19:28;101438.59;;;-1.77;95.20
70843;BME280;58469;52.312;16.970;2024-03-06T04:22:28;101434.63;;;-1.81;95.12
70843;BME280;58469;52.312;16.970;2024-03-06T04:25:29;101444.41;;;-1.86;95.50
70843;BME280;58469;52.312;16.970;2024-03-06T04:28:29;101449.03;;;-1.91;96.04
70843;BME280;58469;52.312;16.970;2024-03-06T04:31:30;101448.56;;;-1.96;95.91
70843;BME280;58469;52.312;16.970;2024-03-06T04:34:30;101451.56;;;-2.02;95.89
70843;BME280;58469;52.312;16.970;2024-03-06T04:37:30;101457.13;;;-2.08;96.52
70843;BME280;58469;52.312;16.970;2024-03-06T04:40:31;101460.25;;;-2.15;96.43
70843;BME280;58469;52.312;16.970;2024-03-06T04:43:31;101450.47;;;-2.21;97.08
70843;BME280;58469;52.312;16.970;2024-03-06T04:46:32;101455.69;;;-2.23;96.67
70843;BME280;58469;52.312;16.970;2024-03-06T04:49:33;101459.03;;;-2.22;97.18
70843;BME280;58469;52.312;16.970;2024-03-06T04:52:35;101460.91;;;-2.24;96.77
70843;BME280;58469;52.312;16.970;2024-03-06T04:55:35;101461.94;;;-2.27;95.92
70843;BME280;58469;52.312;16.970;2024-03-06T04:58:37;101472.28;;;-2.28;96.50
70843;BME280;58469;52.312;16.970;2024-03-06T05:01:37;101469.63;;;-2.27;97.22
70843;BME280;58469;52.312;16.970;2024-03-06T05:04:37;101477.91;;;-2.23;97.22
70843;BME280;58469;52.312;16.970;2024-03-06T05:07:38;101478.81;;;-2.24;96.18
70843;BME280;58469;52.312;16.970;2024-03-06T05:10:38;101476.59;;;-2.29;96.01
70843;BME280;58469;52.312;16.970;2024-03-06T05:13:39;101487.06;;;-2.32;95.54
70843;BME280;58469;52.312;16.970;2024-03-06T05:16:40;101483.28;;;-2.39;95.84
70843;BME280;58469;52.312;16.970;2024-03-06T05:19:40;101481.84;;;-2.43;96.05
70843;BME280;58469;52.312;16.970;2024-03-06T05:22:40;101488.53;;;-2.41;95.97
70843;BME280;58469;52.312;16.970;2024-03-06T05:25:41;101497.09;;;-2.42;95.31
70843;BME280;58469;52.312;16.970;2024-03-06T05:28:41;101492.69;;;-2.40;95.59
70843;BME280;58469;52.312;16.970;2024-03-06T05:31:41;101495.75;;;-2.34;95.25
70843;BME280;58469;52.312;16.970;2024-03-06T05:34:42;101500.97;;;-2.36;95.58
70843;BME280;58469;52.312;16.970;2024-03-06T05:37:43;101506.41;;;-2.28;96.88
70843;BME280;58469;52.312;16.970;2024-03-06T05:40:43;101488.50;;;-2.17;98.37
70843;BME280;58469;52.312;16.970;2024-03-06T05:43:45;101496.28;;;-1.95;98.74
70843;BME280;58469;52.312;16.970;2024-03-06T05:46:46;101495.44;;;-1.72;97.78
70843;BME280;58469;52.312;16.970;2024-03-06T05:49:47;101492.22;;;-1.52;97.12
70843;BME280;58469;52.312;16.970;2024-03-06T05:52:47;101492.38;;;-1.31;97.70
70843;BME280;58469;52.312;16.970;2024-03-06T05:55:48;101499.38;;;-1.11;97.01
70843;BME280;58469;52.312;16.970;2024-03-06T05:58:48;101491.78;;;-0.90;96.90
70843;BME280;58469;52.312;16.970;2024-03-06T06:01:49;101491.09;;;-0.70;96.34
70843;BME280;58469;52.312;16.970;2024-03-06T06:04:49;101498.13;;;-0.41;95.88
70843;BME280;58469;52.312;16.970;2024-03-06T06:07:50;101495.75;;;-0.22;95.01
70843;BME280;58469;52.312;16.970;2024-03-06T06:10:51;101491.25;;;-0.09;94.43
70843;BME280;58469;52.312;16.970;2024-03-06T06:13:54;101505.34;;;0.08;93.54
70843;BME280;58469;52.312;16.970;2024-03-06T06:16:56;101503.97;;;0.25;92.73
70843;BME280;58469;52.312;16.970;2024-03-06T06:19:57;101502.78;;;0.29;91.61
70843;BME280;58469;52.312;16.970;2024-03-06T06:22:57;101507.34;;;0.25;91.41
70843;BME280;58469;52.312;16.970;2024-03-06T06:25:58;101503.25;;;0.23;91.17
70843;BME280;58469;52.312;16.970;2024-03-06T06:28:58;101509.66;;;0.28;91.07
70843;BME280;58469;52.312;16.970;2024-03-06T06:31:59;101512.13;;;0.50;91.50
70843;BME280;58469;52.312;16.970;2024-03-06T06:34:59;101515.53;;;0.81;91.98
70843;BME280;58469;52.312;16.970;2024-03-06T06:38:02;101513.91;;;1.10;92.05
70843;BME280;58469;52.312;16.970;2024-03-06T06:41:04;101513.28;;;1.27;91.04
70843;BME280;58469;52.312;16.970;2024-03-06T06:44:05;101517.25;;;1.31;89.81
70843;BME280;58469;52.312;16.970;2024-03-06T06:47:05;101507.59;;;1.23;89.21
70843;BME280;58469;52.312;16.970;2024-03-06T06:50:07;101513.28;;;1.17;89.51
70843;BME280;58469;52.312;16.970;2024-03-06T06:53:09;101512.56;;;1.06;89.78
70843;BME280;58469;52.312;16.970;2024-03-06T06:56:09;101519.66;;;0.93;90.76
70843;BME280;58469;52.312;16.970;2024-03-06T06:59:10;101525.31;;;0.87;92.03
70843;BME280;58469;52.312;16.970;2024-03-06T07:02:10;101520.69;;;0.81;93.45
70843;BME280;58469;52.312;16.970;2024-03-06T07:05:11;101521.63;;;0.80;95.00
70843;BME280;58469;52.312;16.970;2024-03-06T07:08:11;101527.34;;;0.83;95.80
70843;BME280;58469;52.312;16.970;2024-03-06T07:11:11;101527.25;;;0.94;96.24
70843;BME280;58469;52.312;16.970;2024-03-06T07:14:12;101530.19;;;1.10;95.27
70843;BME280;58469;52.312;16.970;2024-03-06T07:17:13;101534.16;;;1.24;94.04
70843;BME280;58469;52.312;16.970;2024-03-06T07:20:13;101535.28;;;1.41;94.35
70843;BME280;58469;52.312;16.970;2024-03-06T07:23:14;101551.88;;;1.57;94.25
70843;BME280;58469;52.312;16.970;2024-03-06T07:26:14;101548.94;;;1.71;94.67
70843;BME280;58469;52.312;16.970;2024-03-06T07:29:15;101541.34;;;1.89;94.15
70843;BME280;58469;52.312;16.970;2024-03-06T07:32:15;101540.81;;;2.04;93.55
70843;BME280;58469;52.312;16.970;2024-03-06T07:35:15;101543.84;;;2.19;94.29
70843;BME280;58469;52.312;16.970;2024-03-06T07:38:16;101543.00;;;2.37;93.92
70843;BME280;58469;52.312;16.970;2024-03-06T07:41:16;101539.88;;;2.53;92.83
70843;BME280;58469;52.312;16.970;2024-03-06T07:44:16;101531.44;;;2.51;94.09
70843;BME280;58469;52.312;16.970;2024-03-06T07:47:17;101554.06;;;2.76;93.67
70843;BME280;58469;52.312;16.970;2024-03-06T07:50:17;101567.56;;;3.07;91.40
70843;BME280;58469;52.312;16.970;2024-03-06T07:53:20;101571.38;;;3.39;90.87
70843;BME280;58469;52.312;16.970;2024-03-06T07:56:20;101567.03;;;3.67;91.44
70843;BME280;58469;52.312;16.970;2024-03-06T07:59:21;101571.16;;;3.87;91.89
70843;BME280;58469;52.312;16.970;2024-03-06T08:02:21;101567.84;;;4.12;91.73
70843;BME280;58469;52.312;16.970;2024-03-06T08:05:22;101574.13;;;4.27;90.63
70843;BME280;58469;52.312;16.970;2024-03-06T08:08:22;101575.69;;;4.38;89.90
70843;BME280;58469;52.312;16.970;2024-03-06T08:11:23;101576.47;;;4.56;89.54
70843;BME280;58469;52.312;16.970;2024-03-06T08:14:24;101588.97;;;4.60;88.65
70843;BME280;58469;52.312;16.970;2024-03-06T08:17:25;101588.53;;;4.47;89.09
70843;BME280;58469;52.312;16.970;2024-03-06T08:20:26;101583.94;;;4.59;89.36
70843;BME280;58469;52.312;16.970;2024-03-06T08:23:27;101573.53;;;4.76;89.65
70843;BME280;58469;52.312;16.970;2024-03-06T08:26:28;101575.53;;;4.82;89.38
70843;BME280;58469;52.312;16.970;2024-03-06T08:29:28;101581.13;;;4.96;88.63
70843;BME280;58469;52.312;16.970;2024-03-06T08:32:28;101584.78;;;5.11;88.81
70843;BME280;58469;52.312;16.970;2024-03-06T08:35:29;101575.66;;;4.99;88.14
70843;BME280;58469;52.312;16.970;2024-03-06T08:38:30;101574.16;;;4.96;88.57
70843;BME280;58469;52.312;16.970;2024-03-06T08:41:30;101568.31;;;4.94;89.07
70843;BME280;58469;52.312;16.970;2024-03-06T08:44:31;101578.31;;;4.89;88.78
70843;BME280;58469;52.312;16.970;2024-03-06T08:47:32;101576.09;;;4.94;88.87
70843;BME280;58469;52.312;16.970;2024-03-06T08:50:32;101590.81;;;5.19;89.11
70843;BME280;58469;52.312;16.970;2024-03-06T08:53:32;101594.97;;;5.38;87.98
70843;BME280;58469;52.312;16.970;2024-03-06T08:56:33;101586.81;;;5.66;88.16
70843;BME280;58469;52.312;16.970;2024-03-06T08:59:34;101587.09;;;5.97;87.33
70843;BME280;58469;52.312;16.970;2024-03-06T09:02:35;101592.16;;;6.07;85.74
70843;BME280;58469;52.312;16.970;2024-03-06T09:05:35;101590.06;;;6.26;86.02
70843;BME280;58469;52.312;16.970;2024-03-06T09:08:36;101591.53;;;6.37;85.92
70843;BME280;58469;52.312;16.970;2024-03-06T09:11:36;101587.66;;;6.41;85.19
70843;BME280;58469;52.312;16.970;2024-03-06T09:14:38;101588.59;;;6.40;84.29
70843;BME280;58469;52.312;16.970;2024-03-06T09:17:38;101587.81;;;6.39;84.22
70843;BME280;58469;52.312;16.970;2024-03-06T09:20:39;101582.94;;;6.36;82.64
70843;BME280;58469;52.312;16.970;2024-03-06T09:23:39;101584.22;;;6.24;82.61
70843;BME280;58469;52.312;16.970;2024-03-06T09:26:39;101583.41;;;6.16;82.89
70843;BME280;58469;52.312;16.970;2024-03-06T09:29:40;101582.78;;;6.22;83.39
70843;BME280;58469;52.312;16.970;2024-03-06T09:32:41;101590.72;;;6.28;83.76
70843;BME280;58469;52.312;16.970;2024-03-06T09:35:42;101593.50;;;6.43;83.76
70843;BME280;58469;52.312;16.970;2024-03-06T09:38:45;101598.34;;;6.22;82.17
70843;BME280;58469;52.312;16.970;2024-03-06T09:41:46;101602.72;;;6.29;82.98
70843;BME280;58469;52.312;16.970;2024-03-06T09:44:46;101597.53;;;6.29;82.15
70843;BME280;58469;52.312;16.970;2024-03-06T09:47:49;101600.44;;;6.18;82.33
70843;BME280;58469;52.312;16.970;2024-03-06T09:50:51;101603.69;;;6.20;82.54
70843;BME280;58469;52.312;16.970;2024-03-06T09:53:52;101600.28;;;6.12;82.17
70843;BME280;58469;52.312;16.970;2024-03-06T09:56:53;101600.28;;;6.12;82.10
70843;BME280;58469;52.312;16.970;2024-03-06T09:59:55;101604.81;;;6.10;82.92
70843;BME280;58469;52.312;16.970;2024-03-06T10:02:59;101608.22;;;6.10;82.96
70843;BME280;58469;52.312;16.970;2024-03-06T10:06:03;101609.66;;;6.13;83.41
70843;BME280;58469;52.312;16.970;2024-03-06T10:09:04;101613.75;;;6.15;83.18
70843;BME280;58469;52.312;16.970;2024-03-06T10:12:12;101609.03;;;6.19;83.30
70843;BME280;58469;52.312;16.970;2024-03-06T10:15:12;101615.50;;;6.15;82.98
70843;BME280;58469;52.312;16.970;2024-03-06T10:18:16;101607.06;;;6.21;83.59
70843;BME280;58469;52.312;16.970;2024-03-06T10:21:29;101600.78;;;6.31;82.87
70843;BME280;58469;52.312;16.970;2024-03-06T10:24:31;101602.56;;;6.39;83.07
70843;BME280;58469;52.312;16.970;2024-03-06T10:27:32;101600.78;;;6.31;82.38
70843;BME280;58469;52.312;16.970;2024-03-06T10:30:36;101611.47;;;6.20;82.59
70843;BME280;58469;52.312;16.970;2024-03-06T10:33:37;101604.31;;;6.06;83.21
70843;BME280;58469;52.312;16.970;2024-03-06T10:36:38;101612.41;;;6.03;83.91
70843;BME280;58469;52.312;16.970;2024-03-06T10:39:42;101617.78;;;6.10;84.72
70843;BME280;58469;52.312;16.970;2024-03-06T10:42:44;101607.91;;;6.21;84.70
70843;BME280;58469;52.312;16.970;2024-03-06T10:45:59;101609.69;;;6.21;84.91
70843;BME280;58469;52.312;16.970;2024-03-06T10:49:01;101616.78;;;6.11;85.28
70843;BME280;58469;52.312;16.970;2024-03-06T10:52:04;101613.03;;;5.89;87.31
70843;BME280;58469;52.312;16.970;2024-03-06T10:55:07;101624.63;;;5.77;88.59
70843;BME280;58469;52.312;16.970;2024-03-06T10:58:09;101618.28;;;5.71;90.32
70843;BME280;58469;52.312;16.970;2024-03-06T11:01:09;101616.19;;;5.75;90.50
70843;BME280;58469;52.312;16.970;2024-03-06T11:04:11;101619.59;;;5.75;90.59
70843;BME280;58469;52.312;16.970;2024-03-06T11:07:13;101611.34;;;5.80;89.73
70843;BME280;58469;52.312;16.970;2024-03-06T11:10:29;101609.41;;;5.82;90.06
70843;BME280;58469;52.312;16.970;2024-03-06T11:13:30;101612.34;;;5.87;89.55
70843;BME280;58469;52.312;16.970;2024-03-06T11:26:08;101605.97;;;5.73;94.27
70843;BME280;58469;52.312;16.970;2024-03-06T11:29:10;101599.63;;;5.76;94.84
70843;BME280;58469;52.312;16.970;2024-03-06T11:32:12;101605.66;;;5.76;95.62
70843;BME280;58469;52.312;16.970;2024-03-06T11:35:12;101599.44;;;5.61;96.14
70843;BME280;58469;52.312;16.970;2024-03-06T11:38:16;101603.97;;;5.59;97.07
70843;BME280;58469;52.312;16.970;2024-03-06T11:41:17;101599.69;;;5.50;97.78
70843;BME280;58469;52.312;16.970;2024-03-06T11:44:19;101603.59;;;5.46;98.12
70843;BME280;58469;52.312;16.970;2024-03-06T11:47:21;101596.81;;;5.53;98.23
70843;BME280;58469;52.312;16.970;2024-03-06T11:50:21;101596.34;;;5.58;98.55
70843;BME280;58469;52.312;16.970;2024-03-06T11:53:22;101592.75;;;5.51;98.24
70843;BME280;58469;52.312;16.970;2024-03-06T11:56:22;101601.78;;;5.47;98.54
70843;BME280;58469;52.312;16.970;2024-03-06T11:59:23;101597.41;;;5.39;99.22
70843;BME280;58469;52.312;16.970;2024-03-06T12:02:24;101600.16;;;5.38;99.77
70843;BME280;58469;52.312;16.970;2024-03-06T12:05:25;101602.59;;;5.39;100.00
70843;BME280;58469;52.312;16.970;2024-03-06T12:08:27;101595.66;;;5.48;99.47
70843;BME280;58469;52.312;16.970;2024-03-06T12:11:27;101605.22;;;5.55;99.88
70843;BME280;58469;52.312;16.970;2024-03-06T12:14:28;101607.06;;;5.63;99.50
70843;BME280;58469;52.312;16.970;2024-03-06T12:17:29;101600.75;;;5.65;99.40
70843;BME280;58469;52.312;16.970;2024-03-06T12:20:31;101607.25;;;5.69;99.00
70843;BME280;58469;52.312;16.970;2024-03-06T12:23:31;101612.75;;;5.74;98.67
70843;BME280;58469;52.312;16.970;2024-03-06T12:26:32;101614.41;;;5.75;98.34
70843;BME280;58469;52.312;16.970;2024-03-06T12:29:35;101604.34;;;5.72;97.85
70843;BME280;58469;52.312;16.970;2024-03-06T12:32:36;101602.47;;;5.82;97.61
70843;BME280;58469;52.312;16.970;2024-03-06T12:35:36;101602.31;;;5.84;97.02
70843;BME280;58469;52.312;16.970;2024-03-06T12:38:37;101597.91;;;5.84;97.32
70843;BME280;58469;52.312;16.970;2024-03-06T12:41:37;101602.66;;;5.89;96.49
70843;BME280;58469;52.312;16.970;2024-03-06T12:44:39;101603.97;;;5.93;96.08
70843;BME280;58469;52.312;16.970;2024-03-06T12:47:43;101599.56;;;5.93;97.07
70843;BME280;58469;52.312;16.970;2024-03-06T12:50:43;101604.25;;;5.90;97.86
70843;BME280;58469;52.312;16.970;2024-03-06T12:53:44;101596.31;;;5.91;98.20
70843;BME280;58469;52.312;16.970;2024-03-06T12:56:44;101598.78;;;5.93;97.54
70843;BME280;58469;52.312;16.970;2024-03-06T12:59:44;101598.63;;;5.94;96.55
70843;BME280;58469;52.312;16.970;2024-03-06T13:02:45;101592.44;;;5.95;97.18
70843;BME280;58469;52.312;16.970;2024-03-06T13:05:45;101597.13;;;5.92;97.47
70843;BME280;58469;52.312;16.970;2024-03-06T13:08:46;101601.66;;;5.90;98.30
70843;BME280;58469;52.312;16.970;2024-03-06T13:11:47;101593.22;;;5.88;98.80
70843;BME280;58469;52.312;16.970;2024-03-06T13:14:47;101596.97;;;5.93;97.19
70843;BME280;58469;52.312;16.970;2024-03-06T13:17:48;101596.31;;;5.91;98.90
70843;BME280;58469;52.312;16.970;2024-03-06T13:20:48;101593.09;;;5.89;99.23
70843;BME280;58469;52.312;16.970;2024-03-06T13:23:49;101594.69;;;5.90;98.43
70843;BME280;58469;52.312;16.970;2024-03-06T13:26:49;101596.31;;;5.83;99.48
70843;BME280;58469;52.312;16.970;2024-03-06T13:29:50;101594.53;;;5.84;99.64
70843;BME280;58469;52.312;16.970;2024-03-06T13:32:51;101594.69;;;5.90;98.49
70843;BME280;58469;52.312;16.970;2024-03-06T13:35:51;101595.81;;;5.88;98.36
70843;BME280;58469;52.312;16.970;2024-03-06T13:38:52;101593.38;;;5.86;99.04
70843;BME280;58469;52.312;16.970;2024-03-06T13:41:52;101598.41;;;5.88;99.37
70843;BME280;58469;52.312;16.970;2024-03-06T13:44:52;101596.97;;;5.85;99.61
70843;BME280;58469;52.312;16.970;2024-03-06T13:47:54;101601.00;;;5.88;98.71
70843;BME280;58469;52.312;16.970;2024-03-06T13:50:54;101603.25;;;5.83;99.76
70843;BME280;58469;52.312;16.970;2024-03-06T13:53:54;101601.13;;;5.78;100.00
70843;BME280;58469;52.312;16.970;2024-03-06T13:56:55;101612.97;;;5.81;100.00
70843;BME280;58469;52.312;16.970;2024-03-06T14:03:05;101604.81;;;5.76;100.00
70843;BME280;58469;52.312;16.970;2024-03-06T14:06:05;101601.75;;;5.72;100.00
70843;BME280;58469;52.312;16.970;2024-03-06T14:09:07;101604.97;;;5.74;100.00
70843;BME280;58469;52.312;16.970;2024-03-06T14:12:08;101611.47;;;5.70;100.00
70843;BME280;58469;52.312;16.970;2024-03-06T14:15:08;101603.97;;;5.67;100.00
70843;BME280;58469;52.312;16.970;2024-03-06T14:18:16;101613.56;;;5.67;100.00
70843;BME280;58469;52.312;16.970;2024-03-06T14:21:16;101609.66;;;5.63;100.00
70843;BME280;58469;52.312;16.970;2024-03-06T14:24:17;101616.31;;;5.65;100.00
70843;BME280;58469;52.312;16.970;2024-03-06T14:27:17;101615.19;;;5.68;100.00
70843;BME280;58469;52.312;16.970;2024-03-06T14:30:17;101614.22;;;5.69;100.00
70843;BME280;58469;52.312;16.970;2024-03-06T14:33:19;101615.50;;;5.73;100.00
70843;BME280;58469;52.312;16.970;2024-03-06T14:36:20;101611.81;;;5.75;100.00
70843;BME280;58469;52.312;16.970;2024-03-06T14:39:21;101608.75;;;5.80;100.00
70843;BME280;58469;52.312;16.970;2024-03-06T14:42:23;101598.19;;;5.81;100.00
70843;BME280;58469;52.312;16.970;2024-03-06T14:45:24;101602.81;;;5.87;100.00
70843;BME280;58469;52.312;16.970;2024-03-06T14:48:24;101606.06;;;5.89;100.00
70843;BME280;58469;52.312;16.970;2024-03-06T14:51:24;101616.94;;;5.93;100.00
70843;BME280;58469;52.312;16.970;2024-03-06T14:54:25;101617.72;;;5.93;100.00
70843;BME280;58469;52.312;16.970;2024-03-06T14:57:26;101617.72;;;5.93;100.00
70843;BME280;58469;52.312;16.970;2024-03-06T15:00:27;101621.97;;;5.94;100.00
70843;BME280;58469;52.312;16.970;2024-03-06T15:03:27;101618.22;;;5.97;100.00
70843;BME280;58469;52.312;16.970;2024-03-06T15:06:28;101621.97;;;6.03;100.00
70843;BME280;58469;52.312;16.970;2024-03-06T15:09:29;101621.00;;;6.04;100.00
70843;BME280;58469;52.312;16.970;2024-03-06T15:12:29;101625.56;;;6.02;100.00
70843;BME280;58469;52.312;16.970;2024-03-06T15:15:30;101627.16;;;6.03;100.00
70843;BME280;58469;52.312;16.970;2024-03-06T15:18:31;101633.63;;;5.98;100.00
70843;BME280;58469;52.312;16.970;2024-03-06T15:21:33;101630.53;;;5.95;100.00
70843;BME280;58469;52.312;16.970;2024-03-06T15:24:33;101627.44;;;5.91;100.00
70843;BME280;58469;52.312;16.970;2024-03-06T15:27:33;101636.03;;;5.92;100.00
70843;BME280;58469;52.312;16.970;2024-03-06T15:30:34;101636.38;;;5.97;100.00
70843;BME280;58469;52.312;16.970;2024-03-06T15:33:35;101633.94;;;5.95;100.00
70843;BME280;58469;52.312;16.970;2024-03-06T15:36:35;101639.13;;;5.95;100.00
70843;BME280;58469;52.312;16.970;2024-03-06T15:39:37;101650.69;;;6.01;100.00
70843;BME280;58469;52.312;16.970;2024-03-06T15:42:38;101645.00;;;5.97;100.00
70843;BME280;58469;52.312;16.970;2024-03-06T15:45:38;101645.00;;;5.97;100.00
70843;BME280;58469;52.312;16.970;2024-03-06T15:48:38;101650.00;;;5.99;100.00
70843;BME280;58469;52.312;16.970;2024-03-06T15:51:39;101645.31;;;6.03;100.00